sensor_id;sensor_type;location;lat;lon;timestamp;P1;durP1;ratioP1;P2;durP2;ratioP2
65753;SDS011;52488;47.502;18.940;2023-04-03T00:00:03;7.85;;;4.40;;
65753;SDS011;52488;47.502;18.940;2023-04-03T00:01:07;9.07;;;4.97;;
65753;SDS011;52488;47.502;18.940;2023-04-03T00:02:10;7.20;;;4.85;;
65753;SDS011;52488;47.502;18.940;2023-04-03T00:03:13;6.57;;;4.62;;
65753;SDS011;52488;47.502;18.940;2023-04-03T00:04:16;7.47;;;4.40;;
65753;SDS011;52488;47.502;18.940;2023-04-03T00:05:19;6.87;;;4.53;;
65753;SDS011;52488;47.502;18.940;2023-04-03T00:06:22;6.65;;;4.55;;
65753;SDS011;52488;47.502;18.940;2023-04-03T00:07:25;6.12;;;4.30;;
65753;SDS011;52488;47.502;18.940;2023-04-03T00:08:28;6.18;;;4.40;;
65753;SDS011;52488;47.502;18.940;2023-04-03T00:09:33;5.37;;;4.10;;
65753;SDS011;52488;47.502;18.940;2023-04-03T00:10:36;6.78;;;4.45;;
65753;SDS011;52488;47.502;18.940;2023-04-03T00:11:40;6.70;;;4.40;;
65753;SDS011;52488;47.502;18.940;2023-04-03T00:12:43;6.70;;;4.55;;
65753;SDS011;52488;47.502;18.940;2023-04-03T00:13:45;6.55;;;4.37;;
65753;SDS011;52488;47.502;18.940;2023-04-03T00:14:48;6.85;;;4.93;;
65753;SDS011;52488;47.502;18.940;2023-04-03T00:15:51;7.55;;;4.78;;
65753;SDS011;52488;47.502;18.940;2023-04-03T00:16:55;6.72;;;4.18;;
65753;SDS011;52488;47.502;18.940;2023-04-03T00:17:57;7.90;;;4.72;;
65753;SDS011;52488;47.502;18.940;2023-04-03T00:19:00;7.25;;;4.55;;
65753;SDS011;52488;47.502;18.940;2023-04-03T00:20:03;6.95;;;4.68;;
65753;SDS011;52488;47.502;18.940;2023-04-03T00:21:09;6.22;;;4.40;;
65753;SDS011;52488;47.502;18.940;2023-04-03T00:22:16;6.28;;;4.18;;
65753;SDS011;52488;47.502;18.940;2023-04-03T00:23:18;7.25;;;5.15;;
65753;SDS011;52488;47.502;18.940;2023-04-03T00:24:21;6.32;;;4.20;;
65753;SDS011;52488;47.502;18.940;2023-04-03T00:25:24;7.12;;;4.45;;
65753;SDS011;52488;47.502;18.940;2023-04-03T00:26:27;7.97;;;4.43;;
65753;SDS011;52488;47.502;18.940;2023-04-03T00:27:30;6.87;;;4.45;;
65753;SDS011;52488;47.502;18.940;2023-04-03T00:28:33;7.55;;;4.37;;
65753;SDS011;52488;47.502;18.940;2023-04-03T00:29:36;6.22;;;4.15;;
65753;SDS011;52488;47.502;18.940;2023-04-03T00:30:39;6.32;;;4.40;;
65753;SDS011;52488;47.502;18.940;2023-04-03T00:31:42;5.30;;;3.78;;
65753;SDS011;52488;47.502;18.940;2023-04-03T00:32:47;5.07;;;3.95;;
65753;SDS011;52488;47.502;18.940;2023-04-03T00:33:50;6.62;;;4.25;;
65753;SDS011;52488;47.502;18.940;2023-04-03T00:34:53;5.95;;;4.37;;
65753;SDS011;52488;47.502;18.940;2023-04-03T00:35:56;5.10;;;4.03;;
65753;SDS011;52488;47.502;18.940;2023-04-03T00:36:58;6.25;;;4.30;;
65753;SDS011;52488;47.502;18.940;2023-04-03T00:38:02;4.30;;;3.47;;
65753;SDS011;52488;47.502;18.940;2023-04-03T00:39:05;5.15;;;3.80;;
65753;SDS011;52488;47.502;18.940;2023-04-03T00:40:08;4.47;;;3.37;;
65753;SDS011;52488;47.502;18.940;2023-04-03T00:41:12;5.80;;;3.67;;
65753;SDS011;52488;47.502;18.940;2023-04-03T00:42:15;7.10;;;4.10;;
65753;SDS011;52488;47.502;18.940;2023-04-03T00:43:23;7.00;;;4.22;;
65753;SDS011;52488;47.502;18.940;2023-04-03T00:45:40;5.80;;;3.75;;
65753;SDS011;52488;47.502;18.940;2023-04-03T00:46:45;6.07;;;4.10;;
65753;SDS011;52488;47.502;18.940;2023-04-03T00:47:48;6.60;;;4.25;;
65753;SDS011;52488;47.502;18.940;2023-04-03T00:48:52;5.75;;;4.07;;
65753;SDS011;52488;47.502;18.940;2023-04-03T00:49:55;6.10;;;4.07;;
65753;SDS011;52488;47.502;18.940;2023-04-03T00:50:58;6.37;;;4.25;;
65753;SDS011;52488;47.502;18.940;2023-04-03T00:52:02;5.60;;;4.12;;
65753;SDS011;52488;47.502;18.940;2023-04-03T00:53:06;6.12;;;3.83;;
65753;SDS011;52488;47.502;18.940;2023-04-03T00:54:14;6.15;;;3.90;;
65753;SDS011;52488;47.502;18.940;2023-04-03T00:55:17;6.45;;;3.85;;
65753;SDS011;52488;47.502;18.940;2023-04-03T00:56:21;6.80;;;3.92;;
65753;SDS011;52488;47.502;18.940;2023-04-03T00:57:28;6.10;;;4.20;;
65753;SDS011;52488;47.502;18.940;2023-04-03T00:58:34;7.57;;;4.30;;
65753;SDS011;52488;47.502;18.940;2023-04-03T00:59:44;5.07;;;3.58;;
65753;SDS011;52488;47.502;18.940;2023-04-03T01:00:52;5.40;;;3.75;;
65753;SDS011;52488;47.502;18.940;2023-04-03T01:02:00;6.57;;;4.05;;
65753;SDS011;52488;47.502;18.940;2023-04-03T01:03:03;5.18;;;3.85;;
65753;SDS011;52488;47.502;18.940;2023-04-03T01:04:23;6.20;;;3.60;;
65753;SDS011;52488;47.502;18.940;2023-04-03T01:05:33;6.15;;;3.60;;
65753;SDS011;52488;47.502;18.940;2023-04-03T01:06:37;5.97;;;3.92;;
65753;SDS011;52488;47.502;18.940;2023-04-03T01:07:40;6.60;;;3.97;;
65753;SDS011;52488;47.502;18.940;2023-04-03T01:08:43;6.22;;;4.15;;
65753;SDS011;52488;47.502;18.940;2023-04-03T01:09:51;5.05;;;3.45;;
65753;SDS011;52488;47.502;18.940;2023-04-03T01:10:56;5.05;;;3.50;;
65753;SDS011;52488;47.502;18.940;2023-04-03T01:12:16;5.87;;;3.78;;
65753;SDS011;52488;47.502;18.940;2023-04-03T01:13:25;5.53;;;3.78;;
65753;SDS011;52488;47.502;18.940;2023-04-03T01:15:34;4.80;;;2.97;;
65753;SDS011;52488;47.502;18.940;2023-04-03T01:16:37;4.35;;;3.22;;
65753;SDS011;52488;47.502;18.940;2023-04-03T01:17:49;6.62;;;3.80;;
65753;SDS011;52488;47.502;18.940;2023-04-03T01:18:54;5.28;;;3.25;;
65753;SDS011;52488;47.502;18.940;2023-04-03T01:25:39;6.60;;;3.97;;
65753;SDS011;52488;47.502;18.940;2023-04-03T01:26:44;7.95;;;3.92;;
65753;SDS011;52488;47.502;18.940;2023-04-03T01:27:48;6.20;;;3.70;;
65753;SDS011;52488;47.502;18.940;2023-04-03T01:28:51;5.20;;;3.33;;
65753;SDS011;52488;47.502;18.940;2023-04-03T01:29:56;4.53;;;3.10;;
65753;SDS011;52488;47.502;18.940;2023-04-03T01:31:06;4.10;;;2.90;;
65753;SDS011;52488;47.502;18.940;2023-04-03T01:32:13;5.05;;;3.28;;
65753;SDS011;52488;47.502;18.940;2023-04-03T01:33:16;6.05;;;3.83;;
65753;SDS011;52488;47.502;18.940;2023-04-03T01:34:19;5.65;;;3.60;;
65753;SDS011;52488;47.502;18.940;2023-04-03T01:35:22;4.90;;;3.17;;
65753;SDS011;52488;47.502;18.940;2023-04-03T01:36:27;3.85;;;3.12;;
65753;SDS011;52488;47.502;18.940;2023-04-03T01:37:31;5.03;;;3.40;;
65753;SDS011;52488;47.502;18.940;2023-04-03T01:38:34;4.82;;;3.20;;
65753;SDS011;52488;47.502;18.940;2023-04-03T01:39:37;5.50;;;3.20;;
65753;SDS011;52488;47.502;18.940;2023-04-03T01:40:40;4.85;;;3.37;;
65753;SDS011;52488;47.502;18.940;2023-04-03T01:41:43;4.95;;;3.37;;
65753;SDS011;52488;47.502;18.940;2023-04-03T01:42:46;3.80;;;2.80;;
65753;SDS011;52488;47.502;18.940;2023-04-03T01:43:49;4.03;;;2.97;;
65753;SDS011;52488;47.502;18.940;2023-04-03T01:44:51;5.55;;;3.20;;
65753;SDS011;52488;47.502;18.940;2023-04-03T01:45:54;4.12;;;3.00;;
65753;SDS011;52488;47.502;18.940;2023-04-03T01:46:57;8.40;;;3.40;;
65753;SDS011;52488;47.502;18.940;2023-04-03T01:48:00;4.22;;;3.37;;
65753;SDS011;52488;47.502;18.940;2023-04-03T01:49:03;4.32;;;3.08;;
65753;SDS011;52488;47.502;18.940;2023-04-03T01:50:07;4.50;;;3.15;;
65753;SDS011;52488;47.502;18.940;2023-04-03T01:51:10;4.75;;;3.15;;
65753;SDS011;52488;47.502;18.940;2023-04-03T01:52:12;3.80;;;2.75;;
65753;SDS011;52488;47.502;18.940;2023-04-03T01:53:16;6.53;;;3.85;;
65753;SDS011;52488;47.502;18.940;2023-04-03T01:54:18;5.20;;;3.35;;
65753;SDS011;52488;47.502;18.940;2023-04-03T01:55:21;3.55;;;2.67;;
65753;SDS011;52488;47.502;18.940;2023-04-03T01:56:24;4.93;;;3.00;;
65753;SDS011;52488;47.502;18.940;2023-04-03T01:57:27;4.80;;;2.90;;
65753;SDS011;52488;47.502;18.940;2023-04-03T01:58:30;4.40;;;2.80;;
65753;SDS011;52488;47.502;18.940;2023-04-03T01:59:33;4.70;;;3.00;;
65753;SDS011;52488;47.502;18.940;2023-04-03T02:00:36;5.55;;;2.87;;
65753;SDS011;52488;47.502;18.940;2023-04-03T02:01:39;5.07;;;3.28;;
65753;SDS011;52488;47.502;18.940;2023-04-03T02:02:42;4.60;;;3.33;;
65753;SDS011;52488;47.502;18.940;2023-04-03T02:03:45;4.87;;;3.12;;
65753;SDS011;52488;47.502;18.940;2023-04-03T02:04:48;5.43;;;3.03;;
65753;SDS011;52488;47.502;18.940;2023-04-03T02:05:50;4.07;;;3.00;;
65753;SDS011;52488;47.502;18.940;2023-04-03T02:06:54;6.60;;;3.33;;
65753;SDS011;52488;47.502;18.940;2023-04-03T02:07:57;5.55;;;3.55;;
65753;SDS011;52488;47.502;18.940;2023-04-03T02:08:59;3.37;;;2.60;;
65753;SDS011;52488;47.502;18.940;2023-04-03T02:10:02;6.62;;;3.37;;
65753;SDS011;52488;47.502;18.940;2023-04-03T02:11:05;3.95;;;2.80;;
65753;SDS011;52488;47.502;18.940;2023-04-03T02:12:09;5.32;;;3.22;;
65753;SDS011;52488;47.502;18.940;2023-04-03T02:13:12;3.40;;;2.75;;
65753;SDS011;52488;47.502;18.940;2023-04-03T02:14:14;4.00;;;2.92;;
65753;SDS011;52488;47.502;18.940;2023-04-03T02:15:18;3.17;;;2.78;;
65753;SDS011;52488;47.502;18.940;2023-04-03T02:16:21;4.47;;;3.00;;
65753;SDS011;52488;47.502;18.940;2023-04-03T02:17:23;4.20;;;2.60;;
65753;SDS011;52488;47.502;18.940;2023-04-03T02:18:27;3.28;;;2.78;;
65753;SDS011;52488;47.502;18.940;2023-04-03T02:19:29;4.10;;;2.83;;
65753;SDS011;52488;47.502;18.940;2023-04-03T02:20:33;4.30;;;2.95;;
65753;SDS011;52488;47.502;18.940;2023-04-03T02:21:36;6.85;;;2.90;;
65753;SDS011;52488;47.502;18.940;2023-04-03T02:22:39;4.20;;;2.65;;
65753;SDS011;52488;47.502;18.940;2023-04-03T02:23:42;4.53;;;3.22;;
65753;SDS011;52488;47.502;18.940;2023-04-03T02:24:45;4.32;;;2.85;;
65753;SDS011;52488;47.502;18.940;2023-04-03T02:25:47;4.97;;;2.90;;
65753;SDS011;52488;47.502;18.940;2023-04-03T02:26:51;4.62;;;3.30;;
65753;SDS011;52488;47.502;18.940;2023-04-03T02:27:54;4.37;;;2.92;;
65753;SDS011;52488;47.502;18.940;2023-04-03T02:28:57;3.17;;;2.62;;
65753;SDS011;52488;47.502;18.940;2023-04-03T02:29:59;4.37;;;3.20;;
65753;SDS011;52488;47.502;18.940;2023-04-03T02:31:02;4.00;;;2.75;;
65753;SDS011;52488;47.502;18.940;2023-04-03T02:32:06;4.03;;;2.87;;
65753;SDS011;52488;47.502;18.940;2023-04-03T02:33:09;3.47;;;2.55;;
65753;SDS011;52488;47.502;18.940;2023-04-03T02:34:12;4.22;;;3.00;;
65753;SDS011;52488;47.502;18.940;2023-04-03T02:35:15;4.55;;;2.92;;
65753;SDS011;52488;47.502;18.940;2023-04-03T02:36:18;5.43;;;2.83;;
65753;SDS011;52488;47.502;18.940;2023-04-03T02:37:21;3.35;;;2.80;;
65753;SDS011;52488;47.502;18.940;2023-04-03T02:38:25;4.05;;;2.60;;
65753;SDS011;52488;47.502;18.940;2023-04-03T02:39:28;3.25;;;2.60;;
65753;SDS011;52488;47.502;18.940;2023-04-03T02:40:31;4.07;;;2.87;;
65753;SDS011;52488;47.502;18.940;2023-04-03T02:41:34;4.70;;;2.90;;
65753;SDS011;52488;47.502;18.940;2023-04-03T02:42:39;3.85;;;2.87;;
65753;SDS011;52488;47.502;18.940;2023-04-03T02:43:42;3.67;;;2.40;;
65753;SDS011;52488;47.502;18.940;2023-04-03T02:44:45;3.78;;;2.75;;
65753;SDS011;52488;47.502;18.940;2023-04-03T02:45:48;4.28;;;2.92;;
65753;SDS011;52488;47.502;18.940;2023-04-03T02:46:51;4.10;;;2.70;;
65753;SDS011;52488;47.502;18.940;2023-04-03T02:47:55;3.05;;;2.60;;
65753;SDS011;52488;47.502;18.940;2023-04-03T02:48:57;3.85;;;2.87;;
65753;SDS011;52488;47.502;18.940;2023-04-03T02:50:00;3.80;;;2.70;;
65753;SDS011;52488;47.502;18.940;2023-04-03T02:51:03;6.10;;;3.00;;
65753;SDS011;52488;47.502;18.940;2023-04-03T02:52:06;5.50;;;3.20;;
65753;SDS011;52488;47.502;18.940;2023-04-03T02:53:09;4.57;;;2.90;;
65753;SDS011;52488;47.502;18.940;2023-04-03T02:54:12;3.58;;;2.78;;
65753;SDS011;52488;47.502;18.940;2023-04-03T02:55:14;4.47;;;3.00;;
65753;SDS011;52488;47.502;18.940;2023-04-03T02:56:18;4.37;;;2.92;;
65753;SDS011;52488;47.502;18.940;2023-04-03T02:57:21;5.35;;;2.67;;
65753;SDS011;52488;47.502;18.940;2023-04-03T02:58:24;4.30;;;2.75;;
65753;SDS011;52488;47.502;18.940;2023-04-03T02:59:27;3.72;;;2.78;;
65753;SDS011;52488;47.502;18.940;2023-04-03T03:00:30;4.35;;;2.83;;
65753;SDS011;52488;47.502;18.940;2023-04-03T03:01:33;5.90;;;3.00;;
65753;SDS011;52488;47.502;18.940;2023-04-03T03:02:36;3.60;;;2.40;;
65753;SDS011;52488;47.502;18.940;2023-04-03T03:03:39;3.67;;;2.60;;
65753;SDS011;52488;47.502;18.940;2023-04-03T03:04:41;3.95;;;2.70;;
65753;SDS011;52488;47.502;18.940;2023-04-03T03:05:45;4.47;;;2.90;;
65753;SDS011;52488;47.502;18.940;2023-04-03T03:06:48;3.20;;;2.67;;
65753;SDS011;52488;47.502;18.940;2023-04-03T03:07:50;6.50;;;2.92;;
65753;SDS011;52488;47.502;18.940;2023-04-03T03:08:53;4.22;;;2.80;;
65753;SDS011;52488;47.502;18.940;2023-04-03T03:09:56;3.85;;;2.75;;
65753;SDS011;52488;47.502;18.940;2023-04-03T03:10:59;3.87;;;2.95;;
65753;SDS011;52488;47.502;18.940;2023-04-03T03:12:02;4.10;;;3.03;;
65753;SDS011;52488;47.502;18.940;2023-04-03T03:13:05;3.58;;;3.05;;
65753;SDS011;52488;47.502;18.940;2023-04-03T03:14:08;3.20;;;2.90;;
65753;SDS011;52488;47.502;18.940;2023-04-03T03:15:11;3.87;;;2.78;;
65753;SDS011;52488;47.502;18.940;2023-04-03T03:16:14;4.62;;;2.87;;
65753;SDS011;52488;47.502;18.940;2023-04-03T03:17:17;4.78;;;2.72;;
65753;SDS011;52488;47.502;18.940;2023-04-03T03:18:20;3.17;;;2.37;;
65753;SDS011;52488;47.502;18.940;2023-04-03T03:19:23;3.62;;;2.45;;
65753;SDS011;52488;47.502;18.940;2023-04-03T03:20:26;4.00;;;2.67;;
65753;SDS011;52488;47.502;18.940;2023-04-03T03:21:29;4.35;;;2.70;;
65753;SDS011;52488;47.502;18.940;2023-04-03T03:22:33;3.35;;;2.67;;
65753;SDS011;52488;47.502;18.940;2023-04-03T03:23:37;4.43;;;2.65;;
65753;SDS011;52488;47.502;18.940;2023-04-03T03:24:39;2.97;;;2.37;;
65753;SDS011;52488;47.502;18.940;2023-04-03T03:25:42;4.22;;;2.65;;
65753;SDS011;52488;47.502;18.940;2023-04-03T03:26:48;3.62;;;2.40;;
65753;SDS011;52488;47.502;18.940;2023-04-03T03:27:51;3.62;;;2.78;;
65753;SDS011;52488;47.502;18.940;2023-04-03T03:28:54;3.20;;;2.53;;
65753;SDS011;52488;47.502;18.940;2023-04-03T03:29:57;4.87;;;3.15;;
65753;SDS011;52488;47.502;18.940;2023-04-03T03:31:01;5.20;;;3.37;;
65753;SDS011;52488;47.502;18.940;2023-04-03T03:32:04;2.90;;;2.53;;
65753;SDS011;52488;47.502;18.940;2023-04-03T03:33:07;4.35;;;2.80;;
65753;SDS011;52488;47.502;18.940;2023-04-03T03:34:10;4.65;;;2.70;;
65753;SDS011;52488;47.502;18.940;2023-04-03T03:35:12;5.85;;;3.20;;
65753;SDS011;52488;47.502;18.940;2023-04-03T03:36:15;6.85;;;2.72;;
65753;SDS011;52488;47.502;18.940;2023-04-03T03:37:18;4.75;;;3.05;;
65753;SDS011;52488;47.502;18.940;2023-04-03T03:38:21;4.70;;;3.40;;
65753;SDS011;52488;47.502;18.940;2023-04-03T03:39:25;3.47;;;2.55;;
65753;SDS011;52488;47.502;18.940;2023-04-03T03:40:28;3.85;;;3.12;;
65753;SDS011;52488;47.502;18.940;2023-04-03T03:41:31;4.37;;;3.00;;
65753;SDS011;52488;47.502;18.940;2023-04-03T03:42:33;6.15;;;3.05;;
65753;SDS011;52488;47.502;18.940;2023-04-03T03:43:36;3.90;;;2.72;;
65753;SDS011;52488;47.502;18.940;2023-04-03T03:44:40;5.18;;;3.22;;
65753;SDS011;52488;47.502;18.940;2023-04-03T03:45:43;5.40;;;3.00;;
65753;SDS011;52488;47.502;18.940;2023-04-03T03:46:47;5.47;;;3.10;;
65753;SDS011;52488;47.502;18.940;2023-04-03T03:47:51;5.72;;;2.80;;
65753;SDS011;52488;47.502;18.940;2023-04-03T03:48:54;5.15;;;3.60;;
65753;SDS011;52488;47.502;18.940;2023-04-03T03:49:57;3.00;;;2.42;;
65753;SDS011;52488;47.502;18.940;2023-04-03T03:50:59;6.10;;;3.33;;
65753;SDS011;52488;47.502;18.940;2023-04-03T03:52:02;4.97;;;3.00;;
65753;SDS011;52488;47.502;18.940;2023-04-03T03:53:14;4.50;;;2.90;;
65753;SDS011;52488;47.502;18.940;2023-04-03T03:54:17;4.12;;;2.80;;
65753;SDS011;52488;47.502;18.940;2023-04-03T03:55:20;3.78;;;3.03;;
65753;SDS011;52488;47.502;18.940;2023-04-03T03:56:23;4.20;;;2.95;;
65753;SDS011;52488;47.502;18.940;2023-04-03T03:57:26;3.83;;;3.03;;
65753;SDS011;52488;47.502;18.940;2023-04-03T03:58:31;3.72;;;2.87;;
65753;SDS011;52488;47.502;18.940;2023-04-03T03:59:35;3.62;;;2.90;;
65753;SDS011;52488;47.502;18.940;2023-04-03T04:00:38;4.00;;;2.65;;
65753;SDS011;52488;47.502;18.940;2023-04-03T04:01:40;4.53;;;2.87;;
65753;SDS011;52488;47.502;18.940;2023-04-03T04:02:43;4.35;;;3.30;;
65753;SDS011;52488;47.502;18.940;2023-04-03T04:03:46;4.68;;;3.08;;
65753;SDS011;52488;47.502;18.940;2023-04-03T04:04:49;4.35;;;2.70;;
65753;SDS011;52488;47.502;18.940;2023-04-03T04:05:52;5.37;;;3.33;;
65753;SDS011;52488;47.502;18.940;2023-04-03T04:06:55;3.62;;;2.90;;
65753;SDS011;52488;47.502;18.940;2023-04-03T04:07:57;5.97;;;3.10;;
65753;SDS011;52488;47.502;18.940;2023-04-03T04:09:00;5.00;;;3.10;;
65753;SDS011;52488;47.502;18.940;2023-04-03T04:10:04;4.15;;;3.03;;
65753;SDS011;52488;47.502;18.940;2023-04-03T04:11:07;3.22;;;2.60;;
65753;SDS011;52488;47.502;18.940;2023-04-03T04:12:15;6.30;;;3.62;;
65753;SDS011;52488;47.502;18.940;2023-04-03T04:13:18;4.20;;;3.05;;
65753;SDS011;52488;47.502;18.940;2023-04-03T04:14:21;4.68;;;3.20;;
65753;SDS011;52488;47.502;18.940;2023-04-03T04:15:24;4.47;;;3.10;;
65753;SDS011;52488;47.502;18.940;2023-04-03T04:16:28;6.10;;;3.45;;
65753;SDS011;52488;47.502;18.940;2023-04-03T04:17:30;4.43;;;2.62;;
65753;SDS011;52488;47.502;18.940;2023-04-03T04:18:33;5.25;;;2.80;;
65753;SDS011;52488;47.502;18.940;2023-04-03T04:19:37;5.35;;;2.72;;
65753;SDS011;52488;47.502;18.940;2023-04-03T04:20:40;3.87;;;3.17;;
65753;SDS011;52488;47.502;18.940;2023-04-03T04:21:43;6.05;;;3.40;;
65753;SDS011;52488;47.502;18.940;2023-04-03T04:22:46;3.67;;;2.58;;
65753;SDS011;52488;47.502;18.940;2023-04-03T04:23:49;5.53;;;3.53;;
65753;SDS011;52488;47.502;18.940;2023-04-03T04:24:52;4.05;;;3.00;;
65753;SDS011;52488;47.502;18.940;2023-04-03T04:25:54;5.30;;;3.03;;
65753;SDS011;52488;47.502;18.940;2023-04-03T04:26:57;6.57;;;3.28;;
65753;SDS011;52488;47.502;18.940;2023-04-03T04:28:00;4.07;;;2.80;;
65753;SDS011;52488;47.502;18.940;2023-04-03T04:29:03;4.65;;;3.10;;
65753;SDS011;52488;47.502;18.940;2023-04-03T04:30:05;5.15;;;3.12;;
65753;SDS011;52488;47.502;18.940;2023-04-03T04:31:09;3.87;;;3.03;;
65753;SDS011;52488;47.502;18.940;2023-04-03T04:32:12;5.53;;;3.08;;
65753;SDS011;52488;47.502;18.940;2023-04-03T04:33:14;3.83;;;2.92;;
65753;SDS011;52488;47.502;18.940;2023-04-03T04:34:17;5.47;;;3.20;;
65753;SDS011;52488;47.502;18.940;2023-04-03T04:35:20;5.43;;;3.65;;
65753;SDS011;52488;47.502;18.940;2023-04-03T04:36:23;4.78;;;3.28;;
65753;SDS011;52488;47.502;18.940;2023-04-03T04:37:26;4.40;;;3.03;;
65753;SDS011;52488;47.502;18.940;2023-04-03T04:38:29;4.45;;;2.95;;
65753;SDS011;52488;47.502;18.940;2023-04-03T04:39:32;4.70;;;3.00;;
65753;SDS011;52488;47.502;18.940;2023-04-03T04:40:35;3.12;;;2.55;;
65753;SDS011;52488;47.502;18.940;2023-04-03T04:41:38;4.78;;;3.33;;
65753;SDS011;52488;47.502;18.940;2023-04-03T04:42:41;3.62;;;2.80;;
65753;SDS011;52488;47.502;18.940;2023-04-03T04:43:44;4.15;;;2.95;;
65753;SDS011;52488;47.502;18.940;2023-04-03T04:44:46;4.32;;;2.87;;
65753;SDS011;52488;47.502;18.940;2023-04-03T04:45:57;4.30;;;3.17;;
65753;SDS011;52488;47.502;18.940;2023-04-03T04:47:03;4.32;;;2.65;;
65753;SDS011;52488;47.502;18.940;2023-04-03T04:48:05;7.82;;;3.12;;
65753;SDS011;52488;47.502;18.940;2023-04-03T04:49:09;5.22;;;3.00;;
65753;SDS011;52488;47.502;18.940;2023-04-03T04:50:12;5.28;;;3.22;;
65753;SDS011;52488;47.502;18.940;2023-04-03T04:51:15;3.72;;;2.70;;
65753;SDS011;52488;47.502;18.940;2023-04-03T04:52:18;4.15;;;2.75;;
65753;SDS011;52488;47.502;18.940;2023-04-03T04:53:21;4.97;;;2.80;;
65753;SDS011;52488;47.502;18.940;2023-04-03T04:54:23;5.65;;;3.45;;
65753;SDS011;52488;47.502;18.940;2023-04-03T04:55:26;4.65;;;2.90;;
65753;SDS011;52488;47.502;18.940;2023-04-03T04:56:29;5.15;;;2.92;;
65753;SDS011;52488;47.502;18.940;2023-04-03T04:57:36;3.87;;;3.00;;
65753;SDS011;52488;47.502;18.940;2023-04-03T04:58:41;6.05;;;3.10;;
65753;SDS011;52488;47.502;18.940;2023-04-03T04:59:44;4.90;;;3.28;;
65753;SDS011;52488;47.502;18.940;2023-04-03T05:00:46;4.95;;;3.15;;
65753;SDS011;52488;47.502;18.940;2023-04-03T05:01:49;5.55;;;3.20;;
65753;SDS011;52488;47.502;18.940;2023-04-03T05:02:52;6.00;;;3.30;;
65753;SDS011;52488;47.502;18.940;2023-04-03T05:03:55;5.50;;;3.45;;
65753;SDS011;52488;47.502;18.940;2023-04-03T05:04:58;5.60;;;3.30;;
65753;SDS011;52488;47.502;18.940;2023-04-03T05:06:01;5.15;;;3.10;;
65753;SDS011;52488;47.502;18.940;2023-04-03T05:07:04;4.75;;;2.80;;
65753;SDS011;52488;47.502;18.940;2023-04-03T05:08:07;5.68;;;3.05;;
65753;SDS011;52488;47.502;18.940;2023-04-03T05:09:10;3.87;;;2.83;;
65753;SDS011;52488;47.502;18.940;2023-04-03T05:10:13;8.80;;;3.75;;
65753;SDS011;52488;47.502;18.940;2023-04-03T05:11:16;5.55;;;3.33;;
65753;SDS011;52488;47.502;18.940;2023-04-03T05:12:19;3.50;;;3.08;;
65753;SDS011;52488;47.502;18.940;2023-04-03T05:13:21;4.93;;;3.20;;
65753;SDS011;52488;47.502;18.940;2023-04-03T05:14:24;3.90;;;2.83;;
65753;SDS011;52488;47.502;18.940;2023-04-03T05:15:27;4.65;;;3.12;;
65753;SDS011;52488;47.502;18.940;2023-04-03T05:16:30;3.70;;;2.65;;
65753;SDS011;52488;47.502;18.940;2023-04-03T05:17:33;4.12;;;2.97;;
65753;SDS011;52488;47.502;18.940;2023-04-03T05:18:36;3.85;;;2.75;;
65753;SDS011;52488;47.502;18.940;2023-04-03T05:19:39;5.60;;;3.05;;
65753;SDS011;52488;47.502;18.940;2023-04-03T05:20:42;4.68;;;3.12;;
65753;SDS011;52488;47.502;18.940;2023-04-03T05:21:46;4.80;;;3.00;;
65753;SDS011;52488;47.502;18.940;2023-04-03T05:22:49;5.05;;;3.15;;
65753;SDS011;52488;47.502;18.940;2023-04-03T05:23:52;5.15;;;3.28;;
65753;SDS011;52488;47.502;18.940;2023-04-03T05:24:54;4.45;;;3.10;;
65753;SDS011;52488;47.502;18.940;2023-04-03T05:25:57;4.95;;;3.12;;
65753;SDS011;52488;47.502;18.940;2023-04-03T05:27:00;4.37;;;3.10;;
65753;SDS011;52488;47.502;18.940;2023-04-03T05:28:03;4.25;;;2.78;;
65753;SDS011;52488;47.502;18.940;2023-04-03T05:29:06;6.00;;;3.28;;
65753;SDS011;52488;47.502;18.940;2023-04-03T05:30:09;4.75;;;3.28;;
65753;SDS011;52488;47.502;18.940;2023-04-03T05:31:12;3.08;;;2.72;;
65753;SDS011;52488;47.502;18.940;2023-04-03T05:32:16;3.90;;;2.65;;
65753;SDS011;52488;47.502;18.940;2023-04-03T05:33:18;4.65;;;2.97;;
65753;SDS011;52488;47.502;18.940;2023-04-03T05:34:21;4.30;;;2.92;;
65753;SDS011;52488;47.502;18.940;2023-04-03T05:35:24;3.90;;;3.00;;
65753;SDS011;52488;47.502;18.940;2023-04-03T05:36:27;5.50;;;2.75;;
65753;SDS011;52488;47.502;18.940;2023-04-03T05:37:30;4.22;;;2.62;;
65753;SDS011;52488;47.502;18.940;2023-04-03T05:38:33;6.43;;;3.03;;
65753;SDS011;52488;47.502;18.940;2023-04-03T05:39:36;3.83;;;2.55;;
65753;SDS011;52488;47.502;18.940;2023-04-03T05:40:41;2.62;;;2.28;;
65753;SDS011;52488;47.502;18.940;2023-04-03T05:41:43;3.60;;;2.72;;
65753;SDS011;52488;47.502;18.940;2023-04-03T05:42:46;3.47;;;2.60;;
65753;SDS011;52488;47.502;18.940;2023-04-03T05:43:49;3.03;;;2.22;;
65753;SDS011;52488;47.502;18.940;2023-04-03T05:44:52;3.70;;;3.00;;
65753;SDS011;52488;47.502;18.940;2023-04-03T05:45:55;2.85;;;2.30;;
65753;SDS011;52488;47.502;18.940;2023-04-03T05:46:58;4.07;;;2.70;;
65753;SDS011;52488;47.502;18.940;2023-04-03T05:48:01;3.92;;;2.67;;
65753;SDS011;52488;47.502;18.940;2023-04-03T05:49:04;4.20;;;2.83;;
65753;SDS011;52488;47.502;18.940;2023-04-03T05:50:07;3.45;;;2.47;;
65753;SDS011;52488;47.502;18.940;2023-04-03T05:51:15;4.00;;;2.78;;
65753;SDS011;52488;47.502;18.940;2023-04-03T05:52:35;3.60;;;2.47;;
65753;SDS011;52488;47.502;18.940;2023-04-03T05:53:40;4.68;;;2.80;;
65753;SDS011;52488;47.502;18.940;2023-04-03T05:54:46;3.85;;;2.75;;
65753;SDS011;52488;47.502;18.940;2023-04-03T05:55:50;5.07;;;2.90;;
65753;SDS011;52488;47.502;18.940;2023-04-03T05:56:54;3.65;;;2.50;;
65753;SDS011;52488;47.502;18.940;2023-04-03T05:57:57;3.35;;;2.50;;
65753;SDS011;52488;47.502;18.940;2023-04-03T05:59:00;2.95;;;2.60;;
65753;SDS011;52488;47.502;18.940;2023-04-03T06:00:04;4.62;;;2.55;;
65753;SDS011;52488;47.502;18.940;2023-04-03T06:01:08;4.10;;;2.47;;
65753;SDS011;52488;47.502;18.940;2023-04-03T06:02:14;4.07;;;2.92;;
65753;SDS011;52488;47.502;18.940;2023-04-03T06:03:19;3.58;;;2.35;;
65753;SDS011;52488;47.502;18.940;2023-04-03T06:04:22;3.50;;;2.80;;
65753;SDS011;52488;47.502;18.940;2023-04-03T06:05:24;4.87;;;2.85;;
65753;SDS011;52488;47.502;18.940;2023-04-03T06:06:50;4.45;;;2.72;;
65753;SDS011;52488;47.502;18.940;2023-04-03T06:07:53;5.45;;;2.72;;
65753;SDS011;52488;47.502;18.940;2023-04-03T06:08:57;4.20;;;2.80;;
65753;SDS011;52488;47.502;18.940;2023-04-03T06:09:59;3.72;;;2.62;;
65753;SDS011;52488;47.502;18.940;2023-04-03T06:11:03;2.85;;;2.25;;
65753;SDS011;52488;47.502;18.940;2023-04-03T06:12:06;3.10;;;2.58;;
65753;SDS011;52488;47.502;18.940;2023-04-03T06:13:09;4.87;;;2.75;;
65753;SDS011;52488;47.502;18.940;2023-04-03T06:14:12;3.90;;;2.60;;
65753;SDS011;52488;47.502;18.940;2023-04-03T06:15:14;4.03;;;2.87;;
65753;SDS011;52488;47.502;18.940;2023-04-03T06:16:19;3.53;;;2.78;;
65753;SDS011;52488;47.502;18.940;2023-04-03T06:17:22;3.53;;;2.80;;
65753;SDS011;52488;47.502;18.940;2023-04-03T06:18:26;4.60;;;2.92;;
65753;SDS011;52488;47.502;18.940;2023-04-03T06:19:29;2.92;;;2.47;;
65753;SDS011;52488;47.502;18.940;2023-04-03T06:20:32;3.72;;;2.53;;
65753;SDS011;52488;47.502;18.940;2023-04-03T06:21:35;4.40;;;2.90;;
65753;SDS011;52488;47.502;18.940;2023-04-03T06:22:38;2.83;;;2.53;;
65753;SDS011;52488;47.502;18.940;2023-04-03T06:23:41;4.30;;;2.83;;
65753;SDS011;52488;47.502;18.940;2023-04-03T06:24:44;3.53;;;2.55;;